Few Clouds Current Weather (METAR) For Manchester Airport

All times on the weather descriptions are local

Observed at 13:50 - (29 mins ago)

Few Clouds

9°C

Few Clouds
Clouds: Few Clouds at 1,600ft
Wind: 310° at 09 knots
Visibility: Greater than 10km
QNH: 1017
Dew Point: 6°C
Runway in Use: Runways 23L/R

Sunrise Today: 07:47
Sunset Today: 16:04

Forecast Weather (TAF) For Manchester Airport

Issued at 00:00 - (6 days 9 hrs ago)


Runway in Use: Likely Runways 23L/R

Forecast valid until 00:00 on Sunday

METAR/TAF RAW METAR / TAF

EGCC 231350Z 31009KT 9999 FEW016 09/06 Q1017 NOSIG

Weather Widget

Put weather from any of our airports on your website with our weather widget.

Find Another Search

Airport Search


Please Wait Please Wait - Loading
Close
Close

Login

Username:

Password:

Remember Me:

Remember me on this computer

Forgotten your password? Get a reset password sent to your registered e-mail address

Close

User Private Message

Subject:

Message: